sensor_id;sensor_type;location;lat;lon;timestamp;temperature;humidity
79055;DHT22;68452;47.186;-1.528;2023-05-16T00:00:36;14.60;52.50
79055;DHT22;68452;47.186;-1.528;2023-05-16T00:03:03;14.70;52.60
79055;DHT22;68452;47.186;-1.528;2023-05-16T00:05:29;14.80;52.00
79055;DHT22;68452;47.186;-1.528;2023-05-16T00:07:55;14.60;52.30
79055;DHT22;68452;47.186;-1.528;2023-05-16T00:10:21;14.60;52.70
79055;DHT22;68452;47.186;-1.528;2023-05-16T00:12:47;14.50;52.80
79055;DHT22;68452;47.186;-1.528;2023-05-16T00:15:17;14.40;53.20
79055;DHT22;68452;47.186;-1.528;2023-05-16T00:17:42;14.50;53.30
79055;DHT22;68452;47.186;-1.528;2023-05-16T00:20:12;14.50;53.00
79055;DHT22;68452;47.186;-1.528;2023-05-16T00:22:39;14.50;52.70
79055;DHT22;68452;47.186;-1.528;2023-05-16T00:25:05;14.50;53.30
79055;DHT22;68452;47.186;-1.528;2023-05-16T00:27:33;14.30;53.70
79055;DHT22;68452;47.186;-1.528;2023-05-16T00:29:59;14.40;53.40
79055;DHT22;68452;47.186;-1.528;2023-05-16T00:32:26;14.30;53.70
79055;DHT22;68452;47.186;-1.528;2023-05-16T00:34:51;14.40;53.30
79055;DHT22;68452;47.186;-1.528;2023-05-16T00:37:17;14.40;53.20
79055;DHT22;68452;47.186;-1.528;2023-05-16T00:39:43;14.40;53.50
79055;DHT22;68452;47.186;-1.528;2023-05-16T00:42:09;14.30;53.20
79055;DHT22;68452;47.186;-1.528;2023-05-16T00:44:35;14.30;53.40
79055;DHT22;68452;47.186;-1.528;2023-05-16T00:47:00;14.20;53.60
79055;DHT22;68452;47.186;-1.528;2023-05-16T00:49:28;14.10;54.10
79055;DHT22;68452;47.186;-1.528;2023-05-16T00:51:56;14.30;53.40
79055;DHT22;68452;47.186;-1.528;2023-05-16T00:54:23;14.10;53.40
79055;DHT22;68452;47.186;-1.528;2023-05-16T00:56:51;14.00;54.20
79055;DHT22;68452;47.186;-1.528;2023-05-16T00:59:18;14.10;53.40
79055;DHT22;68452;47.186;-1.528;2023-05-16T01:01:45;14.10;53.90
79055;DHT22;68452;47.186;-1.528;2023-05-16T01:04:15;14.20;53.20
79055;DHT22;68452;47.186;-1.528;2023-05-16T01:06:41;14.10;53.70
79055;DHT22;68452;47.186;-1.528;2023-05-16T01:09:07;14.00;53.90
79055;DHT22;68452;47.186;-1.528;2023-05-16T01:12:12;13.80;54.10
79055;DHT22;68452;47.186;-1.528;2023-05-16T01:26:14;13.80;54.90
79055;DHT22;68452;47.186;-1.528;2023-05-16T01:28:42;13.80;54.90
79055;DHT22;68452;47.186;-1.528;2023-05-16T01:31:08;14.00;54.20
79055;DHT22;68452;47.186;-1.528;2023-05-16T01:33:34;14.00;54.10
79055;DHT22;68452;47.186;-1.528;2023-05-16T01:44:35;13.60;54.70
79055;DHT22;68452;47.186;-1.528;2023-05-16T01:47:08;13.50;55.60
79055;DHT22;68452;47.186;-1.528;2023-05-16T01:50:09;13.50;55.50
79055;DHT22;68452;47.186;-1.528;2023-05-16T01:52:42;13.50;55.80
79055;DHT22;68452;47.186;-1.528;2023-05-16T01:55:15;13.40;55.60
79055;DHT22;68452;47.186;-1.528;2023-05-16T01:57:42;13.30;56.30
79055;DHT22;68452;47.186;-1.528;2023-05-16T02:00:08;13.60;55.30
79055;DHT22;68452;47.186;-1.528;2023-05-16T02:02:34;13.50;56.00
79055;DHT22;68452;47.186;-1.528;2023-05-16T02:05:00;13.70;55.30
79055;DHT22;68452;47.186;-1.528;2023-05-16T02:07:26;13.70;54.90
79055;DHT22;68452;47.186;-1.528;2023-05-16T02:09:52;13.80;54.80
79055;DHT22;68452;47.186;-1.528;2023-05-16T02:12:18;13.70;55.00
79055;DHT22;68452;47.186;-1.528;2023-05-16T02:14:43;13.70;54.50
79055;DHT22;68452;47.186;-1.528;2023-05-16T02:17:09;13.60;55.20
79055;DHT22;68452;47.186;-1.528;2023-05-16T02:19:35;13.60;55.60
79055;DHT22;68452;47.186;-1.528;2023-05-16T02:22:01;13.60;55.50
79055;DHT22;68452;47.186;-1.528;2023-05-16T02:24:27;13.50;55.30
79055;DHT22;68452;47.186;-1.528;2023-05-16T02:26:53;13.40;56.00
79055;DHT22;68452;47.186;-1.528;2023-05-16T02:29:18;13.20;56.20
79055;DHT22;68452;47.186;-1.528;2023-05-16T02:31:44;13.20;56.20
79055;DHT22;68452;47.186;-1.528;2023-05-16T02:34:10;13.10;57.10
79055;DHT22;68452;47.186;-1.528;2023-05-16T02:36:36;13.10;56.90
79055;DHT22;68452;47.186;-1.528;2023-05-16T02:39:02;13.10;56.80
79055;DHT22;68452;47.186;-1.528;2023-05-16T02:41:33;13.20;57.30
79055;DHT22;68452;47.186;-1.528;2023-05-16T02:43:58;13.10;57.00
79055;DHT22;68452;47.186;-1.528;2023-05-16T02:46:29;13.00;57.60
79055;DHT22;68452;47.186;-1.528;2023-05-16T02:48:55;13.00;57.50
79055;DHT22;68452;47.186;-1.528;2023-05-16T02:51:23;13.00;57.70
79055;DHT22;68452;47.186;-1.528;2023-05-16T02:53:50;13.00;57.70
79055;DHT22;68452;47.186;-1.528;2023-05-16T02:56:17;13.20;57.60
79055;DHT22;68452;47.186;-1.528;2023-05-16T02:58:45;13.40;56.70
79055;DHT22;68452;47.186;-1.528;2023-05-16T03:01:12;13.30;56.40
79055;DHT22;68452;47.186;-1.528;2023-05-16T03:03:38;13.30;56.70
79055;DHT22;68452;47.186;-1.528;2023-05-16T03:06:04;13.30;56.80
79055;DHT22;68452;47.186;-1.528;2023-05-16T03:08:30;13.20;56.30
79055;DHT22;68452;47.186;-1.528;2023-05-16T03:10:56;13.10;57.10
79055;DHT22;68452;47.186;-1.528;2023-05-16T03:13:23;13.20;56.70
79055;DHT22;68452;47.186;-1.528;2023-05-16T03:15:49;13.30;56.70
79055;DHT22;68452;47.186;-1.528;2023-05-16T03:18:15;13.20;56.70
79055;DHT22;68452;47.186;-1.528;2023-05-16T03:20:41;13.20;56.90
79055;DHT22;68452;47.186;-1.528;2023-05-16T03:23:07;13.20;56.90
79055;DHT22;68452;47.186;-1.528;2023-05-16T03:25:34;13.10;56.80
79055;DHT22;68452;47.186;-1.528;2023-05-16T03:28:01;13.20;57.10
79055;DHT22;68452;47.186;-1.528;2023-05-16T03:30:27;13.10;56.80
79055;DHT22;68452;47.186;-1.528;2023-05-16T03:32:53;13.10;57.00
79055;DHT22;68452;47.186;-1.528;2023-05-16T03:35:20;13.00;57.30
79055;DHT22;68452;47.186;-1.528;2023-05-16T03:37:45;13.00;57.10
79055;DHT22;68452;47.186;-1.528;2023-05-16T03:40:11;13.00;57.20
79055;DHT22;68452;47.186;-1.528;2023-05-16T03:42:37;13.00;57.20
79055;DHT22;68452;47.186;-1.528;2023-05-16T03:45:06;12.90;57.40
79055;DHT22;68452;47.186;-1.528;2023-05-16T03:47:33;12.90;57.40
79055;DHT22;68452;47.186;-1.528;2023-05-16T03:49:59;13.00;57.10
79055;DHT22;68452;47.186;-1.528;2023-05-16T03:52:24;13.00;56.80
79055;DHT22;68452;47.186;-1.528;2023-05-16T03:54:50;13.00;57.30
79055;DHT22;68452;47.186;-1.528;2023-05-16T03:57:16;13.10;56.90
79055;DHT22;68452;47.186;-1.528;2023-05-16T03:59:42;13.00;56.50
79055;DHT22;68452;47.186;-1.528;2023-05-16T04:02:08;12.90;57.30
79055;DHT22;68452;47.186;-1.528;2023-05-16T04:04:34;12.90;57.40
79055;DHT22;68452;47.186;-1.528;2023-05-16T04:07:01;13.00;57.60
79055;DHT22;68452;47.186;-1.528;2023-05-16T04:09:27;13.00;57.10
79055;DHT22;68452;47.186;-1.528;2023-05-16T04:11:53;12.90;57.20
79055;DHT22;68452;47.186;-1.528;2023-05-16T04:14:22;12.90;57.20
79055;DHT22;68452;47.186;-1.528;2023-05-16T04:16:48;12.90;56.90
79055;DHT22;68452;47.186;-1.528;2023-05-16T04:19:14;12.80;57.40
79055;DHT22;68452;47.186;-1.528;2023-05-16T04:21:40;12.90;56.70
79055;DHT22;68452;47.186;-1.528;2023-05-16T04:24:06;12.60;57.30
79055;DHT22;68452;47.186;-1.528;2023-05-16T04:26:32;12.40;58.50
79055;DHT22;68452;47.186;-1.528;2023-05-16T04:28:58;12.30;58.50
79055;DHT22;68452;47.186;-1.528;2023-05-16T04:31:24;12.40;58.70
79055;DHT22;68452;47.186;-1.528;2023-05-16T04:33:51;12.50;58.10
79055;DHT22;68452;47.186;-1.528;2023-05-16T04:36:17;12.60;58.70
79055;DHT22;68452;47.186;-1.528;2023-05-16T04:38:43;12.70;58.20
79055;DHT22;68452;47.186;-1.528;2023-05-16T04:41:11;12.70;57.30
79055;DHT22;68452;47.186;-1.528;2023-05-16T04:43:38;12.70;57.90
79055;DHT22;68452;47.186;-1.528;2023-05-16T04:46:05;12.80;57.50
79055;DHT22;68452;47.186;-1.528;2023-05-16T04:48:32;12.90;56.90
79055;DHT22;68452;47.186;-1.528;2023-05-16T04:50:59;12.80;57.40
79055;DHT22;68452;47.186;-1.528;2023-05-16T04:53:25;12.80;57.30
79055;DHT22;68452;47.186;-1.528;2023-05-16T04:55:51;12.80;57.40
79055;DHT22;68452;47.186;-1.528;2023-05-16T04:58:17;12.60;57.80
79055;DHT22;68452;47.186;-1.528;2023-05-16T05:00:43;12.60;57.70
79055;DHT22;68452;47.186;-1.528;2023-05-16T05:03:09;12.70;57.90
79055;DHT22;68452;47.186;-1.528;2023-05-16T05:05:35;12.80;57.50
79055;DHT22;68452;47.186;-1.528;2023-05-16T05:08:00;12.90;57.30
79055;DHT22;68452;47.186;-1.528;2023-05-16T05:10:26;12.90;57.00
79055;DHT22;68452;47.186;-1.528;2023-05-16T05:12:53;12.80;56.90
79055;DHT22;68452;47.186;-1.528;2023-05-16T05:15:19;12.80;57.60
79055;DHT22;68452;47.186;-1.528;2023-05-16T05:17:44;12.80;57.50
79055;DHT22;68452;47.186;-1.528;2023-05-16T05:20:11;12.70;57.30
79055;DHT22;68452;47.186;-1.528;2023-05-16T05:22:37;12.70;57.90
79055;DHT22;68452;47.186;-1.528;2023-05-16T05:25:03;12.60;57.90
79055;DHT22;68452;47.186;-1.528;2023-05-16T05:27:29;12.70;58.30
79055;DHT22;68452;47.186;-1.528;2023-05-16T05:29:55;12.70;58.20
79055;DHT22;68452;47.186;-1.528;2023-05-16T05:32:21;12.80;57.70
79055;DHT22;68452;47.186;-1.528;2023-05-16T05:34:47;12.80;57.50
79055;DHT22;68452;47.186;-1.528;2023-05-16T05:37:13;12.60;58.10
79055;DHT22;68452;47.186;-1.528;2023-05-16T05:39:39;12.60;58.50
79055;DHT22;68452;47.186;-1.528;2023-05-16T05:42:05;12.80;58.00
79055;DHT22;68452;47.186;-1.528;2023-05-16T05:44:31;12.70;57.50
79055;DHT22;68452;47.186;-1.528;2023-05-16T05:46:58;12.60;58.60
79055;DHT22;68452;47.186;-1.528;2023-05-16T05:49:25;12.70;58.30
79055;DHT22;68452;47.186;-1.528;2023-05-16T05:51:51;12.80;58.00
79055;DHT22;68452;47.186;-1.528;2023-05-16T05:54:18;12.80;58.10
79055;DHT22;68452;47.186;-1.528;2023-05-16T05:56:44;12.80;58.10
79055;DHT22;68452;47.186;-1.528;2023-05-16T05:59:09;13.00;57.80
79055;DHT22;68452;47.186;-1.528;2023-05-16T06:01:35;13.30;57.00
79055;DHT22;68452;47.186;-1.528;2023-05-16T06:04:01;13.20;56.30
79055;DHT22;68452;47.186;-1.528;2023-05-16T06:06:27;13.10;57.00
79055;DHT22;68452;47.186;-1.528;2023-05-16T06:08:54;13.20;57.60
79055;DHT22;68452;47.186;-1.528;2023-05-16T06:11:19;13.20;56.80
79055;DHT22;68452;47.186;-1.528;2023-05-16T06:13:46;13.20;57.40
79055;DHT22;68452;47.186;-1.528;2023-05-16T06:16:12;13.30;56.80
79055;DHT22;68452;47.186;-1.528;2023-05-16T06:18:38;13.50;56.10
79055;DHT22;68452;47.186;-1.528;2023-05-16T06:21:04;13.30;56.40
79055;DHT22;68452;47.186;-1.528;2023-05-16T06:23:31;13.30;57.20
79055;DHT22;68452;47.186;-1.528;2023-05-16T06:25:58;13.40;57.00
79055;DHT22;68452;47.186;-1.528;2023-05-16T06:28:24;13.30;57.20
79055;DHT22;68452;47.186;-1.528;2023-05-16T06:30:50;13.30;57.20
79055;DHT22;68452;47.186;-1.528;2023-05-16T06:33:17;13.20;57.50
79055;DHT22;68452;47.186;-1.528;2023-05-16T06:35:44;13.20;57.20
79055;DHT22;68452;47.186;-1.528;2023-05-16T06:38:10;13.30;56.70
79055;DHT22;68452;47.186;-1.528;2023-05-16T06:40:36;13.30;56.90
79055;DHT22;68452;47.186;-1.528;2023-05-16T06:43:02;13.60;56.70
79055;DHT22;68452;47.186;-1.528;2023-05-16T06:45:28;13.60;55.90
79055;DHT22;68452;47.186;-1.528;2023-05-16T06:47:54;13.80;56.30
79055;DHT22;68452;47.186;-1.528;2023-05-16T06:50:21;13.90;55.50
79055;DHT22;68452;47.186;-1.528;2023-05-16T06:52:47;14.10;55.60
79055;DHT22;68452;47.186;-1.528;2023-05-16T06:55:13;14.30;54.90
79055;DHT22;68452;47.186;-1.528;2023-05-16T06:57:39;14.40;54.40
79055;DHT22;68452;47.186;-1.528;2023-05-16T07:00:05;14.40;54.00
79055;DHT22;68452;47.186;-1.528;2023-05-16T07:02:31;14.50;53.90
79055;DHT22;68452;47.186;-1.528;2023-05-16T07:04:57;14.50;54.10
79055;DHT22;68452;47.186;-1.528;2023-05-16T07:07:23;14.50;54.40
79055;DHT22;68452;47.186;-1.528;2023-05-16T07:09:49;14.80;53.60
79055;DHT22;68452;47.186;-1.528;2023-05-16T07:12:14;14.90;53.60
79055;DHT22;68452;47.186;-1.528;2023-05-16T07:14:41;15.00;52.90
79055;DHT22;68452;47.186;-1.528;2023-05-16T07:17:08;14.90;53.60
79055;DHT22;68452;47.186;-1.528;2023-05-16T07:19:34;14.80;53.30
79055;DHT22;68452;47.186;-1.528;2023-05-16T07:22:00;14.90;53.60
79055;DHT22;68452;47.186;-1.528;2023-05-16T07:24:26;15.10;53.40
79055;DHT22;68452;47.186;-1.528;2023-05-16T07:26:52;15.30;52.80
79055;DHT22;68452;47.186;-1.528;2023-05-16T07:29:17;15.40;52.70
79055;DHT22;68452;47.186;-1.528;2023-05-16T07:31:43;15.60;52.20
79055;DHT22;68452;47.186;-1.528;2023-05-16T07:34:10;15.70;51.90
79055;DHT22;68452;47.186;-1.528;2023-05-16T07:36:37;15.80;52.10
79055;DHT22;68452;47.186;-1.528;2023-05-16T07:39:03;15.90;51.80
79055;DHT22;68452;47.186;-1.528;2023-05-16T07:41:29;15.90;51.60
79055;DHT22;68452;47.186;-1.528;2023-05-16T07:43:55;15.70;52.50
79055;DHT22;68452;47.186;-1.528;2023-05-16T07:46:21;16.00;52.10
79055;DHT22;68452;47.186;-1.528;2023-05-16T07:48:47;15.90;51.70
79055;DHT22;68452;47.186;-1.528;2023-05-16T07:51:13;16.20;52.00
79055;DHT22;68452;47.186;-1.528;2023-05-16T07:53:38;16.40;51.00
79055;DHT22;68452;47.186;-1.528;2023-05-16T07:56:04;16.40;50.10
79055;DHT22;68452;47.186;-1.528;2023-05-16T07:58:31;16.40;50.70
79055;DHT22;68452;47.186;-1.528;2023-05-16T08:00:57;16.20;51.10
79055;DHT22;68452;47.186;-1.528;2023-05-16T08:03:23;16.30;50.70
79055;DHT22;68452;47.186;-1.528;2023-05-16T08:05:49;16.40;50.50
79055;DHT22;68452;47.186;-1.528;2023-05-16T08:08:16;16.60;50.10
79055;DHT22;68452;47.186;-1.528;2023-05-16T08:10:42;16.70;50.20
79055;DHT22;68452;47.186;-1.528;2023-05-16T08:13:08;16.70;50.10
79055;DHT22;68452;47.186;-1.528;2023-05-16T08:15:34;16.70;49.70
79055;DHT22;68452;47.186;-1.528;2023-05-16T08:18:00;16.90;48.30
79055;DHT22;68452;47.186;-1.528;2023-05-16T08:20:26;17.10;47.90
79055;DHT22;68452;47.186;-1.528;2023-05-16T08:22:53;17.30;47.40
79055;DHT22;68452;47.186;-1.528;2023-05-16T08:25:19;17.40;46.80
79055;DHT22;68452;47.186;-1.528;2023-05-16T08:27:48;17.50;46.00
79055;DHT22;68452;47.186;-1.528;2023-05-16T08:30:15;17.70;46.20
79055;DHT22;68452;47.186;-1.528;2023-05-16T08:32:41;17.60;46.30
79055;DHT22;68452;47.186;-1.528;2023-05-16T08:35:08;17.40;46.20
79055;DHT22;68452;47.186;-1.528;2023-05-16T08:37:35;17.50;45.70
79055;DHT22;68452;47.186;-1.528;2023-05-16T08:40:01;17.60;44.70
79055;DHT22;68452;47.186;-1.528;2023-05-16T08:42:29;17.50;45.30
79055;DHT22;68452;47.186;-1.528;2023-05-16T08:44:55;17.60;44.90
79055;DHT22;68452;47.186;-1.528;2023-05-16T08:47:23;17.60;45.60
79055;DHT22;68452;47.186;-1.528;2023-05-16T08:49:54;17.60;44.90
79055;DHT22;68452;47.186;-1.528;2023-05-16T08:52:25;17.70;45.10
79055;DHT22;68452;47.186;-1.528;2023-05-16T08:54:56;17.70;45.60
79055;DHT22;68452;47.186;-1.528;2023-05-16T08:57:22;17.90;44.90
79055;DHT22;68452;47.186;-1.528;2023-05-16T08:59:48;17.70;45.80
79055;DHT22;68452;47.186;-1.528;2023-05-16T09:02:14;17.70;45.30
79055;DHT22;68452;47.186;-1.528;2023-05-16T09:04:40;17.70;44.80
79055;DHT22;68452;47.186;-1.528;2023-05-16T09:07:07;18.00;44.20
79055;DHT22;68452;47.186;-1.528;2023-05-16T09:09:33;18.10;43.10
79055;DHT22;68452;47.186;-1.528;2023-05-16T09:11:59;18.20;43.30
79055;DHT22;68452;47.186;-1.528;2023-05-16T09:14:25;18.30;43.50
79055;DHT22;68452;47.186;-1.528;2023-05-16T09:17:05;18.50;42.80
79055;DHT22;68452;47.186;-1.528;2023-05-16T09:19:57;18.60;43.40
79055;DHT22;68452;47.186;-1.528;2023-05-16T09:22:23;18.50;42.80
79055;DHT22;68452;47.186;-1.528;2023-05-16T09:24:49;18.40;43.00
79055;DHT22;68452;47.186;-1.528;2023-05-16T09:27:15;18.50;42.10
79055;DHT22;68452;47.186;-1.528;2023-05-16T09:29:42;18.70;43.10
79055;DHT22;68452;47.186;-1.528;2023-05-16T09:32:15;18.90;42.10
79055;DHT22;68452;47.186;-1.528;2023-05-16T09:34:46;18.90;43.00
79055;DHT22;68452;47.186;-1.528;2023-05-16T09:37:22;18.90;42.50
79055;DHT22;68452;47.186;-1.528;2023-05-16T09:39:50;19.10;42.40
79055;DHT22;68452;47.186;-1.528;2023-05-16T09:42:18;19.30;41.40
79055;DHT22;68452;47.186;-1.528;2023-05-16T09:44:53;19.50;41.30
79055;DHT22;68452;47.186;-1.528;2023-05-16T09:47:21;19.30;40.50
79055;DHT22;68452;47.186;-1.528;2023-05-16T09:49:51;19.30;41.30
79055;DHT22;68452;47.186;-1.528;2023-05-16T09:52:17;19.40;41.90
79055;DHT22;68452;47.186;-1.528;2023-05-16T09:54:45;19.70;41.50
79055;DHT22;68452;47.186;-1.528;2023-05-16T09:57:18;19.90;39.30
79055;DHT22;68452;47.186;-1.528;2023-05-16T09:59:45;20.00;39.30
79055;DHT22;68452;47.186;-1.528;2023-05-16T10:02:12;20.00;39.50
79055;DHT22;68452;47.186;-1.528;2023-05-16T10:04:38;20.10;38.50
79055;DHT22;68452;47.186;-1.528;2023-05-16T10:07:05;20.20;38.70
79055;DHT22;68452;47.186;-1.528;2023-05-16T10:09:34;20.30;39.10
79055;DHT22;68452;47.186;-1.528;2023-05-16T10:12:07;20.30;37.90
79055;DHT22;68452;47.186;-1.528;2023-05-16T10:14:35;20.50;37.60
79055;DHT22;68452;47.186;-1.528;2023-05-16T10:17:07;20.60;37.90
79055;DHT22;68452;47.186;-1.528;2023-05-16T10:19:37;20.80;38.00
79055;DHT22;68452;47.186;-1.528;2023-05-16T10:22:05;20.70;38.40
79055;DHT22;68452;47.186;-1.528;2023-05-16T10:24:46;20.60;37.30
79055;DHT22;68452;47.186;-1.528;2023-05-16T10:27:14;20.70;37.50
79055;DHT22;68452;47.186;-1.528;2023-05-16T10:29:41;20.40;37.70
79055;DHT22;68452;47.186;-1.528;2023-05-16T10:32:07;20.50;38.20
79055;DHT22;68452;47.186;-1.528;2023-05-16T10:34:34;20.70;37.30
79055;DHT22;68452;47.186;-1.528;2023-05-16T10:37:01;20.90;38.10
79055;DHT22;68452;47.186;-1.528;2023-05-16T10:39:28;21.10;37.30
79055;DHT22;68452;47.186;-1.528;2023-05-16T10:41:55;21.20;37.80
79055;DHT22;68452;47.186;-1.528;2023-05-16T10:44:21;21.50;37.40
79055;DHT22;68452;47.186;-1.528;2023-05-16T10:46:47;21.50;36.40
79055;DHT22;68452;47.186;-1.528;2023-05-16T10:49:23;21.50;36.20
79055;DHT22;68452;47.186;-1.528;2023-05-16T10:52:04;21.60;36.60
79055;DHT22;68452;47.186;-1.528;2023-05-16T10:54:38;21.60;36.80
79055;DHT22;68452;47.186;-1.528;2023-05-16T10:57:05;21.60;34.80
79055;DHT22;68452;47.186;-1.528;2023-05-16T10:59:46;21.70;34.90
79055;DHT22;68452;47.186;-1.528;2023-05-16T11:02:33;21.90;34.20
79055;DHT22;68452;47.186;-1.528;2023-05-16T11:05:05;22.20;34.00
79055;DHT22;68452;47.186;-1.528;2023-05-16T11:07:35;22.20;34.70
79055;DHT22;68452;47.186;-1.528;2023-05-16T11:10:13;22.50;33.80
79055;DHT22;68452;47.186;-1.528;2023-05-16T11:12:45;22.70;33.90
79055;DHT22;68452;47.186;-1.528;2023-05-16T11:15:26;22.50;34.60
79055;DHT22;68452;47.186;-1.528;2023-05-16T11:18:12;22.50;34.00
79055;DHT22;68452;47.186;-1.528;2023-05-16T11:20:39;22.10;33.60
79055;DHT22;68452;47.186;-1.528;2023-05-16T11:28:18;22.10;33.50
79055;DHT22;68452;47.186;-1.528;2023-05-16T11:30:50;22.30;33.30
79055;DHT22;68452;47.186;-1.528;2023-05-16T11:33:17;22.40;32.50
79055;DHT22;68452;47.186;-1.528;2023-05-16T11:36:07;22.60;32.50
79055;DHT22;68452;47.186;-1.528;2023-05-16T11:38:34;22.70;32.60
79055;DHT22;68452;47.186;-1.528;2023-05-16T11:41:04;22.80;32.40
79055;DHT22;68452;47.186;-1.528;2023-05-16T11:43:40;22.70;33.00
79055;DHT22;68452;47.186;-1.528;2023-05-16T11:46:10;22.50;32.80
79055;DHT22;68452;47.186;-1.528;2023-05-16T11:48:36;22.40;32.80
79055;DHT22;68452;47.186;-1.528;2023-05-16T11:51:02;22.50;32.90
79055;DHT22;68452;47.186;-1.528;2023-05-16T11:53:28;22.60;32.90
79055;DHT22;68452;47.186;-1.528;2023-05-16T11:55:55;22.60;33.30
79055;DHT22;68452;47.186;-1.528;2023-05-16T11:58:21;22.60;32.90
79055;DHT22;68452;47.186;-1.528;2023-05-16T12:00:48;22.70;32.20
79055;DHT22;68452;47.186;-1.528;2023-05-16T12:03:17;22.80;32.30
79055;DHT22;68452;47.186;-1.528;2023-05-16T12:05:53;22.80;32.30
79055;DHT22;68452;47.186;-1.528;2023-05-16T12:08:20;23.00;32.90
79055;DHT22;68452;47.186;-1.528;2023-05-16T12:10:51;23.00;31.90
79055;DHT22;68452;47.186;-1.528;2023-05-16T12:13:18;23.10;31.80
79055;DHT22;68452;47.186;-1.528;2023-05-16T12:15:45;23.30;32.00
79055;DHT22;68452;47.186;-1.528;2023-05-16T12:18:11;23.30;32.20
79055;DHT22;68452;47.186;-1.528;2023-05-16T12:20:38;23.00;32.40
79055;DHT22;68452;47.186;-1.528;2023-05-16T12:23:04;23.10;32.40
79055;DHT22;68452;47.186;-1.528;2023-05-16T12:25:35;22.80;32.70
79055;DHT22;68452;47.186;-1.528;2023-05-16T12:28:03;22.60;32.00
79055;DHT22;68452;47.186;-1.528;2023-05-16T12:30:30;22.70;33.00
79055;DHT22;68452;47.186;-1.528;2023-05-16T12:33:12;22.60;32.80
79055;DHT22;68452;47.186;-1.528;2023-05-16T12:35:41;22.90;32.40
79055;DHT22;68452;47.186;-1.528;2023-05-16T12:38:08;23.10;32.30
79055;DHT22;68452;47.186;-1.528;2023-05-16T12:40:38;23.20;32.30
79055;DHT22;68452;47.186;-1.528;2023-05-16T12:43:11;23.60;31.90
79055;DHT22;68452;47.186;-1.528;2023-05-16T12:45:37;23.60;31.90
79055;DHT22;68452;47.186;-1.528;2023-05-16T12:48:04;23.50;32.00
79055;DHT22;68452;47.186;-1.528;2023-05-16T12:50:32;23.20;32.00
79055;DHT22;68452;47.186;-1.528;2023-05-16T12:52:59;22.90;32.40
79055;DHT22;68452;47.186;-1.528;2023-05-16T12:55:25;22.60;32.60
79055;DHT22;68452;47.186;-1.528;2023-05-16T12:57:51;22.40;32.80
79055;DHT22;68452;47.186;-1.528;2023-05-16T13:00:19;22.20;33.70
79055;DHT22;68452;47.186;-1.528;2023-05-16T13:02:48;22.60;34.30
79055;DHT22;68452;47.186;-1.528;2023-05-16T13:05:14;23.00;33.70
79055;DHT22;68452;47.186;-1.528;2023-05-16T13:07:40;23.10;33.10
79055;DHT22;68452;47.186;-1.528;2023-05-16T13:10:07;23.20;32.10
79055;DHT22;68452;47.186;-1.528;2023-05-16T13:12:37;23.20;32.40
79055;DHT22;68452;47.186;-1.528;2023-05-16T13:15:05;23.20;33.00
79055;DHT22;68452;47.186;-1.528;2023-05-16T13:17:33;23.60;33.00
79055;DHT22;68452;47.186;-1.528;2023-05-16T13:19:59;23.80;31.70
79055;DHT22;68452;47.186;-1.528;2023-05-16T13:22:25;24.10;30.60
79055;DHT22;68452;47.186;-1.528;2023-05-16T13:24:50;24.10;31.50
79055;DHT22;68452;47.186;-1.528;2023-05-16T13:27:16;23.60;31.60
79055;DHT22;68452;47.186;-1.528;2023-05-16T13:29:43;23.40;31.90
79055;DHT22;68452;47.186;-1.528;2023-05-16T13:32:09;23.10;32.30
79055;DHT22;68452;47.186;-1.528;2023-05-16T13:34:35;22.90;32.40
79055;DHT22;68452;47.186;-1.528;2023-05-16T13:37:00;22.70;32.80
79055;DHT22;68452;47.186;-1.528;2023-05-16T13:39:26;22.70;32.70
79055;DHT22;68452;47.186;-1.528;2023-05-16T13:41:52;22.70;32.50
79055;DHT22;68452;47.186;-1.528;2023-05-16T13:44:18;22.30;33.50
79055;DHT22;68452;47.186;-1.528;2023-05-16T13:46:44;22.20;34.20
79055;DHT22;68452;47.186;-1.528;2023-05-16T13:49:10;22.50;33.40
79055;DHT22;68452;47.186;-1.528;2023-05-16T13:51:36;22.90;33.50
79055;DHT22;68452;47.186;-1.528;2023-05-16T13:54:02;23.20;33.90
79055;DHT22;68452;47.186;-1.528;2023-05-16T13:56:28;23.50;33.30
79055;DHT22;68452;47.186;-1.528;2023-05-16T13:58:53;23.60;32.60
79055;DHT22;68452;47.186;-1.528;2023-05-16T14:01:20;23.80;31.70
79055;DHT22;68452;47.186;-1.528;2023-05-16T14:03:46;23.90;31.90
79055;DHT22;68452;47.186;-1.528;2023-05-16T14:06:12;23.70;31.00
79055;DHT22;68452;47.186;-1.528;2023-05-16T14:08:38;23.60;31.30
79055;DHT22;68452;47.186;-1.528;2023-05-16T14:11:04;23.60;31.80
79055;DHT22;68452;47.186;-1.528;2023-05-16T14:13:30;23.40;32.20
79055;DHT22;68452;47.186;-1.528;2023-05-16T14:15:56;23.40;32.70
79055;DHT22;68452;47.186;-1.528;2023-05-16T14:18:22;23.70;33.00
79055;DHT22;68452;47.186;-1.528;2023-05-16T14:20:50;24.80;32.50
79055;DHT22;68452;47.186;-1.528;2023-05-16T14:23:17;26.80;30.70
79055;DHT22;68452;47.186;-1.528;2023-05-16T14:25:43;29.00;27.90
79055;DHT22;68452;47.186;-1.528;2023-05-16T14:28:10;31.50;26.00
79055;DHT22;68452;47.186;-1.528;2023-05-16T14:30:36;31.70;24.20
79055;DHT22;68452;47.186;-1.528;2023-05-16T14:33:02;32.30;24.30
79055;DHT22;68452;47.186;-1.528;2023-05-16T14:35:28;32.20;24.30
79055;DHT22;68452;47.186;-1.528;2023-05-16T14:37:54;33.40;23.30
79055;DHT22;68452;47.186;-1.528;2023-05-16T14:40:20;34.60;22.40
79055;DHT22;68452;47.186;-1.528;2023-05-16T14:42:46;35.40;22.20
79055;DHT22;68452;47.186;-1.528;2023-05-16T14:45:12;35.30;21.80
79055;DHT22;68452;47.186;-1.528;2023-05-16T14:47:38;34.00;22.30
79055;DHT22;68452;47.186;-1.528;2023-05-16T14:50:04;31.90;23.50
79055;DHT22;68452;47.186;-1.528;2023-05-16T14:52:30;30.50;25.30
79055;DHT22;68452;47.186;-1.528;2023-05-16T14:54:56;30.00;25.40
79055;DHT22;68452;47.186;-1.528;2023-05-16T14:57:22;28.80;26.60
79055;DHT22;68452;47.186;-1.528;2023-05-16T14:59:47;28.10;28.00
79055;DHT22;68452;47.186;-1.528;2023-05-16T15:02:14;27.30;28.20
79055;DHT22;68452;47.186;-1.528;2023-05-16T15:04:40;27.20;28.90
79055;DHT22;68452;47.186;-1.528;2023-05-16T15:07:05;26.50;28.80
79055;DHT22;68452;47.186;-1.528;2023-05-16T15:09:31;25.90;29.30
79055;DHT22;68452;47.186;-1.528;2023-05-16T15:11:57;25.40;29.90
79055;DHT22;68452;47.186;-1.528;2023-05-16T15:14:26;25.00;30.10
79055;DHT22;68452;47.186;-1.528;2023-05-16T15:16:53;24.70;30.60
79055;DHT22;68452;47.186;-1.528;2023-05-16T15:19:19;24.20;31.30
79055;DHT22;68452;47.186;-1.528;2023-05-16T15:21:45;23.90;31.70
79055;DHT22;68452;47.186;-1.528;2023-05-16T15:24:12;23.50;32.50
79055;DHT22;68452;47.186;-1.528;2023-05-16T15:26:39;22.90;33.60
79055;DHT22;68452;47.186;-1.528;2023-05-16T15:29:06;22.80;33.80
79055;DHT22;68452;47.186;-1.528;2023-05-16T15:31:32;22.90;34.10
79055;DHT22;68452;47.186;-1.528;2023-05-16T15:33:58;22.90;34.20
79055;DHT22;68452;47.186;-1.528;2023-05-16T15:36:24;22.80;33.90
79055;DHT22;68452;47.186;-1.528;2023-05-16T15:38:50;22.50;34.20
79055;DHT22;68452;47.186;-1.528;2023-05-16T15:41:19;22.40;34.70